createdAt,value
2023-01-27T00:00:37.956Z,99.99
2023-01-27T00:01:38.604Z,99.99
2023-01-27T00:02:38.561Z,99.99
2023-01-27T00:03:37.853Z,99.99
2023-01-27T00:04:37.779Z,99.99
2023-01-27T00:05:37.756Z,99.99
2023-01-27T00:06:37.752Z,99.99
2023-01-27T00:07:37.778Z,99.99
2023-01-27T00:08:37.739Z,99.99
2023-01-27T00:09:37.733Z,99.99
2023-01-27T00:10:37.713Z,99.99
2023-01-27T00:11:37.692Z,99.99
2023-01-27T00:12:37.713Z,99.99
2023-01-27T00:13:37.693Z,99.99
2023-01-27T00:14:37.672Z,99.99
2023-01-27T00:15:37.748Z,99.99
2023-01-27T00:16:37.647Z,99.99
2023-01-27T00:17:37.641Z,99.99
2023-01-27T00:18:37.632Z,99.99
2023-01-27T00:19:37.612Z,99.99
2023-01-27T00:20:37.645Z,99.99
2023-01-27T00:21:37.599Z,99.99
2023-01-27T00:22:37.594Z,99.99
2023-01-27T00:23:37.567Z,99.99
2023-01-27T00:24:37.576Z,99.99
2023-01-27T00:25:37.548Z,99.99
2023-01-27T00:26:37.548Z,99.99
2023-01-27T00:27:37.552Z,99.99
2023-01-27T00:28:37.520Z,99.99
2023-01-27T00:29:37.513Z,99.99
2023-01-27T00:30:37.538Z,99.99
2023-01-27T00:31:37.531Z,99.99
2023-01-27T00:32:37.498Z,99.99
2023-01-27T00:33:37.455Z,99.99
2023-01-27T00:34:37.453Z,99.99
2023-01-27T00:35:37.448Z,99.99
2023-01-27T00:36:37.438Z,99.99
2023-01-27T00:37:37.429Z,99.99
2023-01-27T00:38:37.410Z,99.99
2023-01-27T00:39:37.404Z,99.99
2023-01-27T00:40:37.382Z,99.99
2023-01-27T00:41:37.380Z,99.99
2023-01-27T00:42:37.383Z,99.99
2023-01-27T00:43:37.349Z,99.99
2023-01-27T00:44:37.377Z,99.99
2023-01-27T00:45:37.320Z,99.99
2023-01-27T00:46:37.339Z,99.99
2023-01-27T00:47:37.330Z,99.99
2023-01-27T00:48:37.298Z,99.99
2023-01-27T00:49:37.322Z,99.99
2023-01-27T00:50:37.278Z,99.99
2023-01-27T00:51:37.280Z,99.99
2023-01-27T00:52:37.266Z,99.99
2023-01-27T00:53:37.253Z,99.99
2023-01-27T00:54:37.239Z,99.99
2023-01-27T00:55:37.222Z,99.99
2023-01-27T00:56:37.217Z,99.99
2023-01-27T00:57:37.231Z,99.99
2023-01-27T00:58:37.178Z,99.99
2023-01-27T00:59:37.202Z,99.99
2023-01-27T01:00:37.167Z,99.99
2023-01-27T01:01:37.228Z,99.99
2023-01-27T01:02:37.209Z,99.99
2023-01-27T01:03:37.175Z,99.99
2023-01-27T01:04:37.127Z,99.99
2023-01-27T01:05:37.110Z,99.99
2023-01-27T01:06:37.120Z,99.99
2023-01-27T01:07:37.089Z,99.99
2023-01-27T01:08:37.114Z,99.99
2023-01-27T01:09:37.071Z,99.99
2023-01-27T01:10:37.054Z,99.99
2023-01-27T01:11:37.059Z,99.99
2023-01-27T01:12:37.042Z,99.99
2023-01-27T01:13:37.050Z,99.99
2023-01-27T01:14:37.054Z,99.99
2023-01-27T01:15:36.997Z,99.99
2023-01-27T01:16:36.994Z,99.99
2023-01-27T01:17:36.989Z,99.99
2023-01-27T01:18:36.980Z,99.99
2023-01-27T01:19:36.972Z,99.99
2023-01-27T01:20:36.953Z,99.99
2023-01-27T01:21:36.934Z,99.99
2023-01-27T01:22:36.957Z,99.99
2023-01-27T01:23:36.945Z,99.99
2023-01-27T01:24:36.927Z,99.99
2023-01-27T01:25:36.898Z,99.99
2023-01-27T01:26:36.891Z,99.99
2023-01-27T01:27:36.882Z,99.99
2023-01-27T01:28:36.873Z,99.99
2023-01-27T01:29:36.849Z,99.99
2023-01-27T01:30:36.880Z,99.99
2023-01-27T01:31:36.886Z,99.99
2023-01-27T01:32:36.833Z,99.99
2023-01-27T01:33:36.920Z,99.99
2023-01-27T01:34:36.796Z,99.99
2023-01-27T01:35:36.795Z,99.99
2023-01-27T01:36:36.779Z,99.99
2023-01-27T01:37:36.763Z,99.99
2023-01-27T01:38:36.795Z,99.99
2023-01-27T01:39:36.746Z,99.99
2023-01-27T01:40:36.729Z,99.99
2023-01-27T01:41:36.724Z,99.99
2023-01-27T01:42:36.709Z,99.99
2023-01-27T01:43:36.722Z,99.99
2023-01-27T01:44:36.703Z,99.99
2023-01-27T01:45:36.700Z,99.99
2023-01-27T01:46:36.729Z,99.99
2023-01-27T01:47:36.666Z,99.99
2023-01-27T01:48:36.690Z,99.99
2023-01-27T01:49:36.649Z,99.99
2023-01-27T01:50:36.633Z,99.99
2023-01-27T01:51:36.614Z,99.99
2023-01-27T01:52:36.598Z,99.99
2023-01-27T01:53:36.623Z,99.99
2023-01-27T01:54:36.575Z,99.99
2023-01-27T01:55:36.566Z,99.99
2023-01-27T01:56:36.562Z,99.99
2023-01-27T01:57:36.549Z,99.99
2023-01-27T01:58:36.555Z,99.99
2023-01-27T01:59:36.538Z,99.99
2023-01-27T02:00:36.513Z,99.99
2023-01-27T02:01:36.508Z,99.99
2023-01-27T02:02:36.530Z,99.99
2023-01-27T02:03:36.503Z,99.99
2023-01-27T02:04:36.513Z,99.99
2023-01-27T02:05:36.479Z,99.99
2023-01-27T02:06:36.448Z,99.99
2023-01-27T02:07:36.479Z,99.99
2023-01-27T02:08:36.535Z,99.99
2023-01-27T02:09:36.414Z,99.99
2023-01-27T02:10:36.435Z,99.99
2023-01-27T02:11:36.401Z,99.99
2023-01-27T02:12:36.382Z,99.99
2023-01-27T02:13:36.430Z,99.99
2023-01-27T02:14:36.356Z,99.99
2023-01-27T02:15:36.385Z,99.99
2023-01-27T02:16:36.414Z,99.99
2023-01-27T02:17:36.350Z,99.99
2023-01-27T02:18:36.342Z,99.99
2023-01-27T02:19:36.320Z,99.99
2023-01-27T02:20:36.294Z,99.99
2023-01-27T02:21:36.311Z,99.99
2023-01-27T02:22:36.281Z,99.99
2023-01-27T02:23:36.313Z,99.99
2023-01-27T02:24:36.279Z,99.99
2023-01-27T02:25:36.238Z,99.99
2023-01-27T02:26:36.247Z,99.99
2023-01-27T02:27:36.226Z,99.99
2023-01-27T02:28:36.238Z,99.99
2023-01-27T02:29:36.202Z,99.99
2023-01-27T02:30:36.274Z,99.99
2023-01-27T02:31:36.347Z,99.99
2023-01-27T02:32:36.372Z,99.99
2023-01-27T02:33:36.191Z,99.99
2023-01-27T02:34:36.162Z,99.99
2023-01-27T02:35:36.142Z,99.99
2023-01-27T02:36:36.155Z,99.99
2023-01-27T02:37:36.111Z,99.99
2023-01-27T02:38:36.126Z,99.99
2023-01-27T02:39:36.135Z,99.99
2023-01-27T02:40:36.086Z,99.99
2023-01-27T02:41:36.070Z,99.99
2023-01-27T02:42:36.065Z,99.99
2023-01-27T02:43:36.070Z,99.99
2023-01-27T02:44:36.085Z,99.99
2023-01-27T02:45:36.031Z,99.99
2023-01-27T02:46:36.016Z,99.99
2023-01-27T02:47:36.012Z,99.99
2023-01-27T02:48:36.025Z,99.99
2023-01-27T02:49:35.993Z,99.99
2023-01-27T02:50:35.976Z,99.99
2023-01-27T02:51:35.998Z,99.99
2023-01-27T02:52:35.958Z,99.99
2023-01-27T02:53:35.969Z,99.99
2023-01-27T02:54:35.929Z,99.99
2023-01-27T02:55:35.924Z,99.99
2023-01-27T02:56:35.913Z,99.99
2023-01-27T02:57:35.907Z,99.99
2023-01-27T02:58:35.901Z,99.99
2023-01-27T02:59:35.875Z,99.99
2023-01-27T03:00:35.866Z,99.99
2023-01-27T03:01:35.952Z,99.99
2023-01-27T03:02:35.909Z,99.99
2023-01-27T03:03:35.852Z,99.99
2023-01-27T03:04:35.825Z,99.99
2023-01-27T03:05:35.825Z,99.99
2023-01-27T03:06:35.813Z,99.99
2023-01-27T03:07:35.782Z,99.99
2023-01-27T03:08:35.792Z,99.99
2023-01-27T03:09:35.783Z,99.99
2023-01-27T03:10:35.760Z,99.99
2023-01-27T03:11:35.737Z,99.99
2023-01-27T03:12:35.742Z,99.99
2023-01-27T03:13:35.733Z,99.99
2023-01-27T03:14:35.712Z,99.99
2023-01-27T03:15:35.791Z,99.99
2023-01-27T03:16:35.689Z,99.99
2023-01-27T03:17:35.687Z,99.99
2023-01-27T03:18:35.695Z,99.99
2023-01-27T03:19:35.654Z,99.99
2023-01-27T03:20:35.644Z,99.99
2023-01-27T03:21:35.656Z,99.99
2023-01-27T03:22:35.674Z,99.99
2023-01-27T03:23:35.652Z,99.99
2023-01-27T03:24:37.411Z,99.99
2023-01-27T03:25:35.595Z,99.99
2023-01-27T03:26:35.590Z,99.99
2023-01-27T03:27:35.572Z,99.99
2023-01-27T03:28:35.581Z,99.99
2023-01-27T03:29:35.549Z,99.99
2023-01-27T03:30:35.747Z,99.99
2023-01-27T03:31:35.632Z,99.99
2023-01-27T03:32:35.516Z,99.99
2023-01-27T03:33:35.535Z,99.99
2023-01-27T03:34:35.556Z,99.99
2023-01-27T03:35:35.513Z,99.99
2023-01-27T03:36:35.477Z,99.99
2023-01-27T03:37:35.524Z,99.99
2023-01-27T03:38:35.472Z,99.99
2023-01-27T03:39:35.458Z,99.99
2023-01-27T03:40:35.425Z,99.99
2023-01-27T03:41:35.420Z,99.99
2023-01-27T03:42:35.407Z,99.99
2023-01-27T03:43:35.424Z,99.99
2023-01-27T03:44:35.381Z,99.99
2023-01-27T03:45:35.388Z,99.99
2023-01-27T03:46:35.382Z,99.99
2023-01-27T03:47:36.305Z,99.99
2023-01-27T03:48:35.351Z,99.99
2023-01-27T03:49:35.410Z,99.99
2023-01-27T03:50:35.370Z,99.99
2023-01-27T03:51:35.319Z,99.99
2023-01-27T03:52:35.306Z,99.99
2023-01-27T03:53:35.320Z,99.99
2023-01-27T03:54:35.291Z,99.99
2023-01-27T03:55:41.838Z,99.99
2023-01-27T03:56:35.262Z,99.99
2023-01-27T03:57:35.235Z,99.99
2023-01-27T03:58:35.229Z,99.99
2023-01-27T03:59:35.347Z,99.99
2023-01-27T04:00:35.208Z,99.99
2023-01-27T04:01:35.240Z,99.99
2023-01-27T04:02:35.213Z,99.99
2023-01-27T04:03:35.171Z,99.99
2023-01-27T04:04:35.183Z,99.99
2023-01-27T04:05:35.158Z,99.99
2023-01-27T04:06:35.149Z,99.99
2023-01-27T04:07:35.131Z,99.99
2023-01-27T04:08:35.132Z,99.99
2023-01-27T04:09:35.164Z,99.99
2023-01-27T04:10:35.106Z,99.99
2023-01-27T04:11:35.088Z,99.99
2023-01-27T04:12:35.100Z,99.99
2023-01-27T04:13:35.079Z,99.99
2023-01-27T04:14:35.108Z,99.99
2023-01-27T04:15:35.079Z,99.99
2023-01-27T04:16:35.038Z,99.99
2023-01-27T04:17:35.020Z,99.99
2023-01-27T04:18:35.014Z,99.99
2023-01-27T04:19:35.020Z,99.99
2023-01-27T04:20:34.991Z,99.99
2023-01-27T04:21:34.987Z,99.99
2023-01-27T04:22:34.963Z,99.99
2023-01-27T04:23:34.967Z,99.99
2023-01-27T04:24:34.971Z,99.99
2023-01-27T04:25:34.939Z,99.99
2023-01-27T04:26:34.941Z,99.99
2023-01-27T04:27:34.915Z,99.99
2023-01-27T04:28:44.349Z,99.99
2023-01-27T04:29:34.970Z,99.99
2023-01-27T04:30:34.904Z,99.99
2023-01-27T04:31:34.901Z,99.99
2023-01-27T04:32:34.858Z,99.99
2023-01-27T04:33:34.849Z,99.99
2023-01-27T04:34:34.862Z,99.99
2023-01-27T04:35:38.835Z,99.99
2023-01-27T04:36:34.821Z,99.99
2023-01-27T04:37:34.814Z,99.99
2023-01-27T04:38:34.799Z,99.99
2023-01-27T04:39:34.810Z,99.99
2023-01-27T04:40:34.790Z,99.99
2023-01-27T04:41:34.759Z,99.99
2023-01-27T04:42:34.752Z,99.99
2023-01-27T04:43:34.743Z,99.99
2023-01-27T04:44:34.749Z,99.99
2023-01-27T04:45:34.741Z,99.99
2023-01-27T04:46:34.713Z,99.99
2023-01-27T04:47:34.699Z,99.99
2023-01-27T04:48:34.695Z,99.99
2023-01-27T04:49:34.717Z,99.99
2023-01-27T04:50:34.685Z,99.99
2023-01-27T04:51:34.660Z,99.99
2023-01-27T04:52:34.644Z,99.99
2023-01-27T04:53:34.639Z,99.99
2023-01-27T04:54:34.636Z,99.99
2023-01-27T04:55:34.609Z,99.99
2023-01-27T04:56:34.608Z,99.99
2023-01-27T04:57:34.592Z,99.99
2023-01-27T04:58:34.587Z,99.99
2023-01-27T04:59:34.588Z,99.99
2023-01-27T05:00:34.566Z,99.99
2023-01-27T05:01:34.582Z,99.99
2023-01-27T05:02:34.566Z,99.99
2023-01-27T05:03:34.527Z,99.99
2023-01-27T05:04:34.533Z,99.99
2023-01-27T05:05:34.506Z,99.99
2023-01-27T05:06:34.489Z,99.99
2023-01-27T05:07:34.488Z,99.99
2023-01-27T05:08:34.488Z,99.99
2023-01-27T05:09:34.495Z,99.99
2023-01-27T05:10:34.479Z,99.99
2023-01-27T05:11:34.438Z,99.99
2023-01-27T05:12:34.425Z,99.99
2023-01-27T05:13:34.417Z,99.99
2023-01-27T05:14:34.422Z,99.99
2023-01-27T05:15:34.466Z,99.99
2023-01-27T05:16:34.410Z,99.99
2023-01-27T05:17:34.377Z,99.99
2023-01-27T05:18:34.370Z,99.99
2023-01-27T05:19:34.375Z,99.99
2023-01-27T05:20:34.339Z,99.99
2023-01-27T05:21:34.338Z,99.99
2023-01-27T05:22:34.318Z,99.99
2023-01-27T05:23:34.306Z,99.99
2023-01-27T05:24:34.331Z,99.99
2023-01-27T05:25:34.291Z,99.99
2023-01-27T05:26:34.281Z,99.99
2023-01-27T05:27:34.281Z,99.99
2023-01-27T05:28:34.272Z,99.99
2023-01-27T05:29:34.271Z,99.99
2023-01-27T05:30:34.347Z,99.99
2023-01-27T05:31:34.361Z,99.99
2023-01-27T05:32:34.214Z,99.99
2023-01-27T05:33:34.203Z,99.99
2023-01-27T05:34:34.212Z,99.99
2023-01-27T05:35:34.192Z,99.99
2023-01-27T05:36:34.173Z,99.99
2023-01-27T05:37:34.183Z,99.99
2023-01-27T05:38:34.148Z,99.99
2023-01-27T05:39:34.181Z,99.99
2023-01-27T05:40:34.129Z,99.99
2023-01-27T05:41:34.110Z,99.99
2023-01-27T05:42:34.106Z,99.99
2023-01-27T05:43:34.104Z,99.99
2023-01-27T05:44:34.096Z,99.99
2023-01-27T05:45:34.106Z,99.99
2023-01-27T05:46:34.105Z,99.99
2023-01-27T05:47:34.046Z,99.99
2023-01-27T05:48:34.047Z,99.99
2023-01-27T05:49:34.042Z,99.99
2023-01-27T05:50:34.027Z,99.99
2023-01-27T05:51:34.011Z,99.99
2023-01-27T05:52:33.991Z,99.99
2023-01-27T05:53:34.002Z,99.99
2023-01-27T05:54:33.986Z,99.99
2023-01-27T05:55:33.969Z,99.99
2023-01-27T05:56:33.971Z,99.99
2023-01-27T05:57:33.934Z,99.99
2023-01-27T05:58:33.944Z,99.99
2023-01-27T05:59:33.935Z,99.99
2023-01-27T06:00:34.992Z,99.99
2023-01-27T06:01:33.971Z,99.99
2023-01-27T06:02:33.939Z,99.99
2023-01-27T06:03:33.875Z,99.99
2023-01-27T06:04:33.887Z,99.99
2023-01-27T06:05:33.853Z,99.99
2023-01-27T06:06:33.838Z,99.99
2023-01-27T06:07:33.837Z,99.99
2023-01-27T06:08:33.815Z,99.99
2023-01-27T06:09:33.827Z,99.99
2023-01-27T06:10:33.799Z,99.99
2023-01-27T06:11:33.805Z,99.99
2023-01-27T06:12:33.782Z,99.99
2023-01-27T06:13:33.764Z,99.99
2023-01-27T06:14:33.790Z,99.99
2023-01-27T06:15:33.747Z,99.99
2023-01-27T06:16:33.773Z,99.99
2023-01-27T06:17:33.716Z,99.99
2023-01-27T06:18:33.724Z,99.99
2023-01-27T06:19:33.732Z,99.99
2023-01-27T06:20:33.693Z,99.99
2023-01-27T06:21:34.063Z,99.99
2023-01-27T06:22:33.684Z,99.99
2023-01-27T06:23:33.664Z,99.99
2023-01-27T06:24:33.757Z,99.99
2023-01-27T06:25:33.634Z,99.99
2023-01-27T06:26:33.621Z,99.99
2023-01-27T06:27:33.617Z,99.99
2023-01-27T06:28:33.647Z,99.99
2023-01-27T06:29:33.621Z,99.99
2023-01-27T06:30:33.596Z,99.99
2023-01-27T06:31:33.604Z,99.99
2023-01-27T06:32:33.564Z,99.99
2023-01-27T06:33:33.548Z,99.99
2023-01-27T06:34:33.554Z,99.99
2023-01-27T06:35:33.526Z,99.99
2023-01-27T06:36:33.517Z,99.99
2023-01-27T06:37:33.518Z,99.99
2023-01-27T06:38:33.604Z,99.99
2023-01-27T06:39:33.486Z,99.99
2023-01-27T06:40:33.495Z,99.99
2023-01-27T06:41:33.467Z,99.99
2023-01-27T06:42:33.450Z,99.99
2023-01-27T06:43:33.459Z,99.99
2023-01-27T06:44:33.428Z,99.99
2023-01-27T06:45:33.436Z,99.99
2023-01-27T06:46:33.493Z,99.99
2023-01-27T06:47:33.397Z,99.99
2023-01-27T06:48:33.400Z,99.99
2023-01-27T06:49:33.392Z,99.99
2023-01-27T06:50:33.382Z,99.99
2023-01-27T06:51:33.355Z,99.99
2023-01-27T06:52:33.335Z,99.99
2023-01-27T06:53:33.332Z,99.99
2023-01-27T06:54:33.321Z,99.99
2023-01-27T06:55:33.337Z,99.99
2023-01-27T06:56:33.310Z,99.99
2023-01-27T06:57:33.279Z,99.99
2023-01-27T06:58:33.271Z,99.99
2023-01-27T06:59:33.265Z,99.99
2023-01-27T07:00:33.274Z,99.99
2023-01-27T07:01:33.257Z,99.99
2023-01-27T07:02:33.332Z,99.99
2023-01-27T07:03:38.172Z,99.99
2023-01-27T07:04:33.204Z,99.99
2023-01-27T07:05:33.231Z,99.99
2023-01-27T07:06:33.192Z,99.99
2023-01-27T07:07:33.180Z,99.99
2023-01-27T07:08:33.179Z,99.99
2023-01-27T07:09:42.878Z,99.99
2023-01-27T07:10:33.186Z,99.99
2023-01-27T07:11:33.129Z,99.99
2023-01-27T07:12:33.129Z,99.99
2023-01-27T07:13:33.120Z,99.99
2023-01-27T07:14:33.105Z,99.99
2023-01-27T07:15:33.150Z,99.99
2023-01-27T07:16:33.213Z,99.99
2023-01-27T07:17:33.081Z,99.99
2023-01-27T07:18:33.071Z,99.99
2023-01-27T07:19:35.084Z,99.99
2023-01-27T07:20:33.080Z,99.99
2023-01-27T07:21:33.031Z,99.99
2023-01-27T07:22:33.024Z,99.99
2023-01-27T07:23:33.007Z,99.99
2023-01-27T07:24:33.003Z,99.99
2023-01-27T07:25:33.003Z,99.99
2023-01-27T07:26:32.969Z,99.99
2023-01-27T07:27:32.987Z,99.99
2023-01-27T07:28:32.938Z,99.99
2023-01-27T07:29:32.941Z,99.99
2023-01-27T07:30:32.988Z,99.99
2023-01-27T07:31:32.994Z,99.99
2023-01-27T07:32:32.908Z,99.99
2023-01-27T07:33:32.909Z,99.99
2023-01-27T07:34:32.881Z,99.99
2023-01-27T07:35:32.897Z,99.99
2023-01-27T07:36:32.860Z,99.99
2023-01-27T07:37:33.832Z,99.99
2023-01-27T07:38:32.842Z,99.99
2023-01-27T07:39:32.828Z,99.99
2023-01-27T07:40:32.838Z,99.99
2023-01-27T07:41:32.811Z,99.99
2023-01-27T07:42:32.805Z,99.99
2023-01-27T07:43:32.788Z,99.99
2023-01-27T07:44:32.789Z,99.99
2023-01-27T07:45:32.837Z,99.99
2023-01-27T07:46:32.758Z,99.99
2023-01-27T07:47:32.744Z,99.99
2023-01-27T07:48:32.729Z,99.99
2023-01-27T07:49:32.723Z,99.99
2023-01-27T07:50:32.769Z,99.99
2023-01-27T07:51:32.710Z,99.99
2023-01-27T07:52:32.695Z,99.99
2023-01-27T07:53:32.673Z,99.99
2023-01-27T07:54:32.673Z,99.99
2023-01-27T07:55:32.684Z,99.99
2023-01-27T07:56:32.659Z,99.99
2023-01-27T07:57:32.635Z,99.99
2023-01-27T07:58:32.632Z,99.99
2023-01-27T07:59:32.613Z,99.99
2023-01-27T08:00:32.626Z,99.99
2023-01-27T08:01:32.606Z,99.99
2023-01-27T08:02:32.589Z,99.99
2023-01-27T08:03:32.638Z,99.99
2023-01-27T08:04:43.412Z,99.99
2023-01-27T08:05:32.581Z,99.99
2023-01-27T08:06:32.536Z,99.99
2023-01-27T08:07:32.529Z,99.99
2023-01-27T08:08:32.521Z,99.99
2023-01-27T08:09:32.512Z,99.99
2023-01-27T08:10:32.520Z,99.99
2023-01-27T08:11:32.483Z,99.99
2023-01-27T08:12:32.474Z,99.99
2023-01-27T08:13:32.466Z,99.99
2023-01-27T08:14:32.447Z,99.99
2023-01-27T08:15:32.462Z,99.99
2023-01-27T08:16:32.476Z,99.99
2023-01-27T08:17:32.423Z,99.99
2023-01-27T08:18:32.408Z,99.99
2023-01-27T08:19:32.423Z,99.99
2023-01-27T08:20:32.411Z,99.99
2023-01-27T08:21:32.368Z,99.99
2023-01-27T08:22:32.363Z,99.99
2023-01-27T08:23:31.347Z,99.99
2023-01-27T08:24:32.342Z,99.99
2023-01-27T08:25:32.352Z,99.99
2023-01-27T08:26:32.322Z,99.99
2023-01-27T08:27:32.309Z,99.99
2023-01-27T08:28:32.298Z,99.99
2023-01-27T08:29:32.293Z,99.99
2023-01-27T08:30:32.392Z,99.99
2023-01-27T08:31:32.280Z,99.99
2023-01-27T08:32:32.250Z,99.99
2023-01-27T08:33:32.248Z,99.99
2023-01-27T08:34:32.230Z,99.99
2023-01-27T08:35:32.238Z,99.99
2023-01-27T08:36:32.208Z,99.99
2023-01-27T08:37:32.213Z,99.99
2023-01-27T08:38:32.200Z,99.99
2023-01-27T08:39:32.179Z,99.99
2023-01-27T08:40:32.179Z,99.99
2023-01-27T08:41:32.161Z,99.99
2023-01-27T08:42:32.149Z,99.99
2023-01-27T08:43:32.139Z,99.99
2023-01-27T08:44:32.131Z,99.99
2023-01-27T08:45:32.123Z,99.99
2023-01-27T08:46:32.106Z,99.99
2023-01-27T08:47:32.096Z,99.99
2023-01-27T08:48:32.077Z,99.99
2023-01-27T08:49:32.073Z,99.99
2023-01-27T08:50:32.075Z,99.99
2023-01-27T08:51:32.049Z,99.99
2023-01-27T08:52:32.046Z,99.99
2023-01-27T08:53:32.028Z,99.99
2023-01-27T08:54:32.037Z,99.99
2023-01-27T08:55:32.035Z,99.99
2023-01-27T08:56:31.995Z,99.99
2023-01-27T08:57:31.976Z,99.99
2023-01-27T08:58:33.247Z,99.99
2023-01-27T08:59:31.965Z,99.99
2023-01-27T09:00:31.975Z,99.99
2023-01-27T09:01:32.037Z,99.99
2023-01-27T09:02:31.925Z,99.99
2023-01-27T09:03:31.924Z,99.99
2023-01-27T09:04:31.958Z,99.99
2023-01-27T09:05:31.924Z,99.99
2023-01-27T09:06:31.891Z,99.99
2023-01-27T09:07:31.865Z,99.99
2023-01-27T09:08:31.861Z,99.99
2023-01-27T09:09:31.861Z,99.99
2023-01-27T09:10:31.860Z,99.99
2023-01-27T09:11:31.827Z,99.99
2023-01-27T09:12:31.819Z,99.99
2023-01-27T09:13:31.832Z,99.99
2023-01-27T09:14:31.796Z,99.99
2023-01-27T09:15:31.827Z,99.99
2023-01-27T09:16:31.832Z,99.99
2023-01-27T09:17:31.772Z,99.99
2023-01-27T09:18:31.761Z,99.99
2023-01-27T09:19:31.746Z,99.99
2023-01-27T09:20:31.754Z,99.99
2023-01-27T09:21:31.734Z,99.99
2023-01-27T09:22:31.730Z,99.99
2023-01-27T09:23:31.714Z,99.99
2023-01-27T09:24:31.694Z,99.99
2023-01-27T09:25:31.723Z,99.99
2023-01-27T09:26:31.669Z,99.99
2023-01-27T09:27:39.087Z,99.99
2023-01-27T09:28:31.652Z,99.99
2023-01-27T09:29:31.638Z,99.99
2023-01-27T09:30:31.649Z,99.99
2023-01-27T09:31:31.768Z,99.99
2023-01-27T09:32:31.595Z,99.99
2023-01-27T09:33:31.592Z,99.99
2023-01-27T09:34:31.583Z,99.99
2023-01-27T09:35:31.586Z,99.99
2023-01-27T09:36:31.560Z,99.99
2023-01-27T09:37:31.549Z,99.99
2023-01-27T09:38:31.530Z,99.99
2023-01-27T09:39:31.548Z,99.99
2023-01-27T09:40:31.537Z,99.99
2023-01-27T09:41:31.508Z,99.99
2023-01-27T09:42:31.501Z,99.99
2023-01-27T09:43:31.484Z,99.99
2023-01-27T09:44:31.479Z,99.99
2023-01-27T09:45:31.484Z,99.99
2023-01-27T09:46:31.551Z,99.90
2023-01-27T09:47:31.445Z,99.90
2023-01-27T09:48:31.427Z,99.90
2023-01-27T09:49:31.432Z,99.90
2023-01-27T09:50:31.429Z,99.79
2023-01-27T09:51:31.406Z,99.79
2023-01-27T09:52:46.394Z,99.99
2023-01-27T09:53:31.377Z,99.90
2023-01-27T09:54:31.371Z,99.90
2023-01-27T09:55:31.374Z,99.90
2023-01-27T09:56:31.349Z,99.99
2023-01-27T09:57:31.355Z,99.99
2023-01-27T09:58:31.329Z,99.94
2023-01-27T09:59:31.310Z,99.73
2023-01-27T10:00:31.311Z,99.84
2023-01-27T10:01:31.342Z,99.88
2023-01-27T10:02:31.279Z,99.99
2023-01-27T10:03:31.291Z,99.99
2023-01-27T10:04:31.322Z,99.99
2023-01-27T10:05:31.261Z,99.99
2023-01-27T10:06:32.665Z,99.99
2023-01-27T10:07:31.224Z,99.99
2023-01-27T10:08:31.215Z,99.99
2023-01-27T10:09:31.201Z,99.99
2023-01-27T10:10:31.206Z,99.99
2023-01-27T10:11:31.181Z,99.99
2023-01-27T10:12:31.176Z,99.99
2023-01-27T10:13:31.160Z,99.99
2023-01-27T10:14:31.139Z,99.99
2023-01-27T10:15:31.149Z,99.99
2023-01-27T10:16:31.237Z,99.99
2023-01-27T10:17:31.151Z,99.99
2023-01-27T10:18:31.100Z,99.99
2023-01-27T10:19:31.093Z,99.99
2023-01-27T10:20:31.139Z,99.99
2023-01-27T10:21:31.093Z,99.99
2023-01-27T10:22:31.078Z,99.99
2023-01-27T10:23:31.089Z,99.99
2023-01-27T10:24:31.053Z,99.99
2023-01-27T10:25:31.039Z,99.99
2023-01-27T10:26:31.033Z,99.99
2023-01-27T10:27:31.004Z,99.99
2023-01-27T10:28:30.993Z,99.99
2023-01-27T10:29:30.988Z,99.99
2023-01-27T10:30:30.985Z,99.99
2023-01-27T10:31:31.008Z,99.99
2023-01-27T10:32:30.947Z,99.99
2023-01-27T10:33:30.938Z,99.99
2023-01-27T10:34:30.928Z,99.99
2023-01-27T10:35:30.928Z,99.99
2023-01-27T10:36:30.923Z,99.99
2023-01-27T10:37:30.900Z,99.99
2023-01-27T10:38:30.896Z,99.99
2023-01-27T10:39:30.873Z,99.99
2023-01-27T10:40:30.861Z,99.99
2023-01-27T10:41:30.866Z,99.99
2023-01-27T10:42:30.849Z,99.99
2023-01-27T10:43:30.843Z,99.99
2023-01-27T10:44:30.817Z,99.99
2023-01-27T10:45:30.873Z,99.99
2023-01-27T10:46:30.847Z,99.99
2023-01-27T10:47:30.787Z,99.93
2023-01-27T10:48:30.783Z,99.72
2023-01-27T10:49:30.769Z,99.72
2023-01-27T10:50:30.769Z,99.72
2023-01-27T10:51:30.767Z,99.62
2023-01-27T10:52:30.741Z,99.62
2023-01-27T10:53:30.739Z,99.52
2023-01-27T10:54:31.705Z,99.37
2023-01-27T10:55:30.705Z,99.37
2023-01-27T10:56:30.711Z,99.26
2023-01-27T10:57:30.682Z,99.26
2023-01-27T10:58:30.672Z,98.85
2023-01-27T10:59:30.675Z,97.81
2023-01-27T11:01:30.936Z,97.91
2023-01-27T11:02:30.624Z,98.02
2023-01-27T11:03:30.618Z,98.02
2023-01-27T11:04:30.718Z,97.87
2023-01-27T11:05:30.587Z,97.97
2023-01-27T11:06:30.599Z,97.77
2023-01-27T11:07:31.710Z,97.56
2023-01-27T11:08:30.565Z,97.35
2023-01-27T11:09:30.555Z,97.25
2023-01-27T11:10:30.548Z,97.35
2023-01-27T11:11:30.549Z,97.35
2023-01-27T11:12:30.522Z,97.25
2023-01-27T11:13:30.515Z,97.04
2023-01-27T11:14:30.499Z,97.04
2023-01-27T11:15:30.495Z,96.73
2023-01-27T11:16:30.504Z,96.62
2023-01-27T11:17:30.473Z,96.62
2023-01-27T11:18:30.455Z,96.62
2023-01-27T11:19:30.450Z,96.62
2023-01-27T11:20:30.451Z,96.52
2023-01-27T11:21:30.443Z,96.31
2023-01-27T11:22:30.438Z,96.21
2023-01-27T11:23:30.398Z,95.90
2023-01-27T11:24:30.381Z,95.90
2023-01-27T11:25:30.379Z,95.90
2023-01-27T11:26:30.378Z,95.70
2023-01-27T11:27:30.363Z,95.70
2023-01-27T11:28:30.346Z,95.59
2023-01-27T11:29:30.345Z,95.70
2023-01-27T11:30:30.392Z,95.59
2023-01-27T11:31:30.477Z,95.39
2023-01-27T11:32:30.299Z,95.53
2023-01-27T11:33:30.281Z,95.43
2023-01-27T11:34:30.286Z,95.32
2023-01-27T11:35:30.263Z,95.84
2023-01-27T11:36:30.276Z,95.43
2023-01-27T11:37:30.243Z,95.43
2023-01-27T11:38:30.234Z,95.32
2023-01-27T11:39:30.229Z,95.12
2023-01-27T11:40:30.209Z,95.12
2023-01-27T11:41:30.214Z,94.60
2023-01-27T11:42:30.193Z,94.49
2023-01-27T11:43:30.178Z,94.60
2023-01-27T11:44:30.179Z,93.98
2023-01-27T11:45:30.193Z,93.98
2023-01-27T11:46:30.185Z,93.56
2023-01-27T11:47:30.143Z,93.66
2023-01-27T11:48:30.129Z,93.87
2023-01-27T11:49:30.110Z,94.18
2023-01-27T11:50:30.129Z,94.49
2023-01-27T11:51:30.108Z,93.66
2023-01-27T11:52:30.090Z,93.66
2023-01-27T11:53:30.076Z,93.77
2023-01-27T11:54:30.066Z,93.77
2023-01-27T11:55:30.069Z,93.98
2023-01-27T11:56:30.055Z,94.18
2023-01-27T11:57:30.028Z,94.49
2023-01-27T11:58:30.017Z,94.29
2023-01-27T11:59:30.009Z,94.18
2023-01-27T12:00:29.989Z,94.29
2023-01-27T12:01:30.006Z,94.18
2023-01-27T12:02:29.969Z,93.77
2023-01-27T12:03:29.998Z,93.66
2023-01-27T12:04:30.035Z,93.98
2023-01-27T12:05:29.944Z,94.18
2023-01-27T12:06:29.944Z,94.18
2023-01-27T12:07:29.920Z,94.18
2023-01-27T12:08:29.916Z,94.29
2023-01-27T12:09:29.901Z,94.29
2023-01-27T12:10:29.887Z,94.39
2023-01-27T12:11:29.892Z,94.70
2023-01-27T12:12:29.867Z,94.85
2023-01-27T12:13:29.873Z,94.91
2023-01-27T12:14:29.855Z,95.22
2023-01-27T12:15:29.828Z,95.22
2023-01-27T12:16:29.835Z,95.32
2023-01-27T12:17:29.806Z,95.43
2023-01-27T12:18:29.807Z,95.43
2023-01-27T12:19:29.794Z,95.64
2023-01-27T12:20:29.778Z,95.68
2023-01-27T12:21:29.795Z,95.68
2023-01-27T12:22:29.759Z,95.68
2023-01-27T12:23:29.746Z,95.78
2023-01-27T12:24:29.826Z,95.89
2023-01-27T12:25:29.723Z,95.37
2023-01-27T12:26:29.724Z,94.85
2023-01-27T12:27:29.713Z,94.85
2023-01-27T12:28:29.701Z,94.64
2023-01-27T12:29:29.693Z,94.43
2023-01-27T12:30:29.683Z,94.33
2023-01-27T12:31:29.866Z,94.33
2023-01-27T12:32:29.639Z,94.23
2023-01-27T12:33:29.645Z,94.33
2023-01-27T12:34:29.627Z,93.71
2023-01-27T12:35:29.615Z,93.50
2023-01-27T12:36:30.386Z,93.71
2023-01-27T12:37:29.597Z,93.91
2023-01-27T12:38:29.576Z,94.12
2023-01-27T12:39:29.578Z,94.12
2023-01-27T12:40:29.566Z,94.02
2023-01-27T12:41:29.567Z,93.91
2023-01-27T12:42:29.571Z,93.91
2023-01-27T12:43:29.530Z,94.02
2023-01-27T12:44:29.523Z,94.02
2023-01-27T12:45:29.500Z,94.02
2023-01-27T12:46:29.542Z,94.33
2023-01-27T12:47:29.486Z,94.12
2023-01-27T12:48:29.471Z,94.02
2023-01-27T12:49:29.462Z,93.91
2023-01-27T12:50:29.462Z,93.81
2023-01-27T12:51:29.455Z,93.29
2023-01-27T12:52:29.433Z,93.29
2023-01-27T12:53:29.423Z,93.29